createdAt,value
2023-03-29T00:00:14.380Z,94921.84
2023-03-29T00:02:42.624Z,94908.81
2023-03-29T00:05:12.351Z,94907.34
2023-03-29T00:07:40.450Z,94895.81
2023-03-29T00:10:11.960Z,94901.44
2023-03-29T00:12:41.639Z,94909.63
2023-03-29T00:15:10.612Z,94901.44
2023-03-29T00:17:39.982Z,94923.47
2023-03-29T00:20:10.332Z,94912.38
2023-03-29T00:22:39.866Z,94910.00
2023-03-29T00:25:10.048Z,94909.19
2023-03-29T00:27:38.735Z,94909.91
2023-03-29T00:30:08.973Z,94914.28
2023-03-29T00:32:37.199Z,94896.59
2023-03-29T00:35:06.421Z,94905.72
2023-03-29T00:37:35.611Z,94888.72
2023-03-29T00:40:07.810Z,94910.91
2023-03-29T00:42:37.411Z,94908.28
2023-03-29T00:45:08.738Z,94902.34
2023-03-29T00:47:41.567Z,94912.28
2023-03-29T00:50:15.843Z,94897.34
2023-03-29T00:52:50.626Z,94906.09
2023-03-29T00:55:22.819Z,94910.00
2023-03-29T00:57:55.773Z,94899.25
2023-03-29T01:00:34.120Z,94905.19
2023-03-29T01:03:07.145Z,94919.38
2023-03-29T01:05:40.492Z,94904.00
2023-03-29T01:08:12.526Z,94920.66
2023-03-29T01:10:45.035Z,94929.31
2023-03-29T01:13:18.386Z,94935.94
2023-03-29T01:15:47.997Z,94935.94
2023-03-29T01:18:15.946Z,94939.34
2023-03-29T01:21:15.211Z,94936.06
2023-03-29T01:24:22.191Z,94923.31
2023-03-29T01:26:58.499Z,94945.44
2023-03-29T01:29:30.365Z,94936.16
2023-03-29T01:32:03.306Z,94920.84
2023-03-29T01:34:37.343Z,94952.09
2023-03-29T01:37:10.215Z,94946.88
2023-03-29T01:39:38.094Z,94918.09
2023-03-29T01:42:16.651Z,94925.84
2023-03-29T01:44:52.370Z,94935.50
2023-03-29T01:47:28.767Z,94928.41
2023-03-29T01:50:06.686Z,94926.59
2023-03-29T01:52:37.614Z,94904.81
2023-03-29T01:55:09.977Z,94920.66
2023-03-29T01:57:40.905Z,94902.81
2023-03-29T02:00:15.359Z,94909.75
2023-03-29T02:02:45.479Z,94915.84
2023-03-29T02:05:16.272Z,94915.66
2023-03-29T02:07:46.196Z,94921.75
2023-03-29T02:10:15.579Z,94921.00
2023-03-29T02:12:43.570Z,94921.66
2023-03-29T02:15:15.848Z,94922.66
2023-03-29T02:17:44.965Z,94922.00
2023-03-29T02:20:19.562Z,94925.94
2023-03-29T02:22:53.382Z,94937.06
2023-03-29T02:25:22.845Z,94938.06
2023-03-29T02:27:51.035Z,94921.38
2023-03-29T02:30:24.693Z,94943.69
2023-03-29T02:32:59.518Z,94954.16
2023-03-29T02:35:35.135Z,94918.81
2023-03-29T02:38:06.465Z,94929.22
2023-03-29T02:40:36.018Z,94951.06
2023-03-29T02:43:04.978Z,94945.97
2023-03-29T02:45:37.036Z,94955.34
2023-03-29T02:48:10.086Z,94953.59
2023-03-29T02:50:40.861Z,94952.78
2023-03-29T02:53:17.265Z,94968.09
2023-03-29T02:55:46.920Z,94948.50
2023-03-29T02:58:15.682Z,94959.81
2023-03-29T03:00:47.390Z,94967.34
2023-03-29T03:03:16.855Z,94964.91
2023-03-29T03:05:45.026Z,94970.75
2023-03-29T03:08:14.103Z,94972.34
2023-03-29T03:10:42.217Z,94992.28
2023-03-29T03:13:10.200Z,94966.69
2023-03-29T03:15:42.674Z,94972.34
2023-03-29T03:18:12.794Z,94973.78
2023-03-29T03:20:40.953Z,94972.72
2023-03-29T03:23:10.755Z,94972.53
2023-03-29T03:25:38.787Z,94991.47
2023-03-29T03:28:06.909Z,94983.47
2023-03-29T03:30:35.070Z,94986.03
2023-03-29T03:33:02.976Z,94987.75
2023-03-29T03:35:32.399Z,94988.22
2023-03-29T03:38:00.338Z,94987.28
2023-03-29T03:40:28.448Z,95017.19
2023-03-29T03:42:56.359Z,95001.88
2023-03-29T03:45:24.786Z,94996.84
2023-03-29T03:47:52.954Z,94980.19
2023-03-29T03:50:20.897Z,95017.25
2023-03-29T03:52:50.236Z,95000.97
2023-03-29T03:55:18.276Z,95018.34
2023-03-29T03:57:48.004Z,95032.47
2023-03-29T04:00:21.364Z,95031.63
2023-03-29T04:02:49.918Z,95010.13
2023-03-29T04:05:18.252Z,95024.88
2023-03-29T04:07:46.141Z,95018.97
2023-03-29T04:10:15.816Z,95014.97
2023-03-29T04:12:45.269Z,95018.22
2023-03-29T04:15:13.820Z,95003.66
2023-03-29T04:17:41.825Z,95021.78
2023-03-29T04:20:12.676Z,95026.88
2023-03-29T04:22:42.678Z,95035.28
2023-03-29T04:25:11.765Z,95031.97
2023-03-29T04:27:41.420Z,95029.88
2023-03-29T04:30:10.690Z,95027.25
2023-03-29T04:32:38.674Z,95049.19
2023-03-29T04:35:06.961Z,95045.91
2023-03-29T04:37:35.248Z,95048.44
2023-03-29T04:40:04.898Z,95028.16
2023-03-29T04:42:34.293Z,95034.16
2023-03-29T04:45:03.554Z,95052.47
2023-03-29T04:47:31.543Z,95037.91
2023-03-29T04:49:59.491Z,95071.06
2023-03-29T04:52:27.548Z,95040.47
2023-03-29T04:54:55.810Z,95025.53
2023-03-29T04:57:23.848Z,95045.44
2023-03-29T04:59:51.906Z,95063.28
2023-03-29T05:02:22.136Z,95079.63
2023-03-29T05:04:50.485Z,95058.19
2023-03-29T05:07:19.530Z,95060.72
2023-03-29T05:09:47.503Z,95059.38
2023-03-29T05:12:15.486Z,95054.53
2023-03-29T05:14:43.376Z,95089.31
2023-03-29T05:17:11.319Z,95068.94
2023-03-29T05:19:40.568Z,95074.69
2023-03-29T05:22:09.235Z,95088.88
2023-03-29T05:24:37.498Z,95094.16
2023-03-29T05:27:05.490Z,95097.19
2023-03-29T05:29:33.786Z,95096.91
2023-03-29T05:32:01.783Z,95100.19
2023-03-29T05:34:31.063Z,95099.19
2023-03-29T05:37:01.523Z,95084.03
2023-03-29T05:39:29.616Z,95095.69
2023-03-29T05:41:58.737Z,95103.09
2023-03-29T05:44:26.854Z,95086.81
2023-03-29T05:46:54.806Z,95111.16
2023-03-29T05:49:22.687Z,95100.06
2023-03-29T05:51:52.061Z,95111.56
2023-03-29T05:54:21.599Z,95149.94
2023-03-29T05:56:49.669Z,95129.41
2023-03-29T05:59:18.143Z,95140.44
2023-03-29T06:01:47.048Z,95109.81
2023-03-29T06:04:15.908Z,95131.31
2023-03-29T06:06:43.943Z,95124.94
2023-03-29T06:09:12.004Z,95129.06
2023-03-29T06:11:41.494Z,95139.53
2023-03-29T06:14:09.441Z,95122.31
2023-03-29T06:16:38.085Z,95120.19
2023-03-29T06:19:07.360Z,95122.03
2023-03-29T06:21:35.734Z,95127.69
2023-03-29T06:24:04.142Z,95141.81
2023-03-29T06:26:32.230Z,95138.44
2023-03-29T06:29:01.613Z,95141.00
2023-03-29T06:31:30.128Z,95137.63
2023-03-29T06:33:58.796Z,95141.91
2023-03-29T06:36:26.990Z,95155.78
2023-03-29T06:38:55.439Z,95146.94
2023-03-29T06:41:23.809Z,95153.50
2023-03-29T06:43:51.847Z,95141.00
2023-03-29T06:46:21.114Z,95151.47
2023-03-29T06:48:49.048Z,95159.19
2023-03-29T06:51:17.252Z,95158.66
2023-03-29T06:53:45.689Z,95161.19
2023-03-29T06:56:14.629Z,95161.56
2023-03-29T06:58:43.008Z,95167.94
2023-03-29T07:01:11.607Z,95127.34
2023-03-29T07:03:41.367Z,95157.59
2023-03-29T07:06:11.791Z,95159.28
2023-03-29T07:08:43.770Z,95142.19
2023-03-29T07:11:13.866Z,95150.13
2023-03-29T07:13:42.700Z,95170.75
2023-03-29T07:16:12.751Z,95172.75
2023-03-29T07:18:44.109Z,95149.63
2023-03-29T07:21:14.089Z,95174.91
2023-03-29T07:23:42.483Z,95154.81
2023-03-29T07:26:11.232Z,95160.91
2023-03-29T07:28:41.013Z,95159.66
2023-03-29T07:31:11.982Z,95146.38
2023-03-29T07:33:40.842Z,95153.84
2023-03-29T07:36:11.745Z,95158.88
2023-03-29T07:38:39.699Z,95208.00
2023-03-29T07:41:09.003Z,95166.25
2023-03-29T07:43:36.951Z,95144.34
2023-03-29T07:46:07.016Z,95156.44
2023-03-29T07:48:37.128Z,95148.84
2023-03-29T07:51:06.181Z,95165.47
2023-03-29T07:53:35.548Z,95148.47
2023-03-29T07:56:03.553Z,95143.13
2023-03-29T07:58:31.480Z,95134.75
2023-03-29T08:01:01.351Z,95146.19
2023-03-29T08:03:29.576Z,95142.94
2023-03-29T08:05:57.513Z,95113.94
2023-03-29T08:08:25.393Z,95145.59
2023-03-29T08:10:54.748Z,95126.47
2023-03-29T08:13:22.602Z,95135.88
2023-03-29T08:15:50.670Z,95150.63
2023-03-29T08:18:18.742Z,95143.19
2023-03-29T08:20:46.788Z,95092.75
2023-03-29T08:23:14.719Z,95125.78
2023-03-29T08:25:42.570Z,95105.72
2023-03-29T08:28:15.440Z,95107.47
2023-03-29T08:30:43.545Z,95105.22
2023-03-29T08:33:12.265Z,95142.94
2023-03-29T08:35:40.480Z,95142.75
2023-03-29T08:38:08.560Z,95101.28
2023-03-29T08:40:36.737Z,95126.72
2023-03-29T08:43:37.129Z,95121.97
2023-03-29T08:46:19.365Z,95132.31
2023-03-29T08:48:53.810Z,95147.31
2023-03-29T08:51:24.823Z,95139.97
2023-03-29T08:53:57.557Z,95127.09
2023-03-29T08:56:31.518Z,95092.63
2023-03-29T08:59:02.337Z,95073.34
2023-03-29T09:01:35.423Z,95125.50
2023-03-29T09:04:09.031Z,95109.19
2023-03-29T09:06:43.143Z,95092.16
2023-03-29T09:09:15.871Z,95104.31
2023-03-29T09:11:58.525Z,95079.03
2023-03-29T09:14:47.409Z,95123.69
2023-03-29T09:17:28.604Z,95118.34
2023-03-29T09:20:06.431Z,95097.81
2023-03-29T09:22:45.820Z,95068.09
2023-03-29T09:25:24.917Z,95071.53
2023-03-29T09:28:01.448Z,95096.56
2023-03-29T09:30:33.174Z,95086.13
2023-03-29T09:33:11.831Z,95089.38
2023-03-29T09:35:43.440Z,95093.16
2023-03-29T09:38:14.025Z,95102.13
2023-03-29T09:40:46.384Z,95086.03
2023-03-29T09:43:18.428Z,95089.19
2023-03-29T09:45:54.737Z,95087.47
2023-03-29T09:48:26.217Z,95054.38
2023-03-29T09:50:54.346Z,95079.16
2023-03-29T09:53:23.114Z,95091.53
2023-03-29T09:55:52.483Z,95108.50
2023-03-29T09:58:24.679Z,95069.78
2023-03-29T10:00:53.222Z,95074.09
2023-03-29T10:03:23.907Z,95073.53
2023-03-29T10:05:55.297Z,95087.69
2023-03-29T10:08:28.329Z,95076.34
2023-03-29T10:10:58.615Z,95055.28
2023-03-29T10:13:30.660Z,95057.91
2023-03-29T10:16:02.549Z,95055.78
2023-03-29T10:18:33.782Z,95139.38
2023-03-29T10:21:03.739Z,95064.97
2023-03-29T10:23:33.925Z,95047.00
2023-03-29T10:26:04.305Z,95041.53
2023-03-29T10:28:34.329Z,95063.97
2023-03-29T10:31:04.118Z,95055.34
2023-03-29T10:33:35.845Z,95091.41
2023-03-29T10:36:08.112Z,95045.28
2023-03-29T10:38:37.684Z,95049.91
2023-03-29T10:41:10.063Z,95025.53
2023-03-29T10:43:39.723Z,95031.22
2023-03-29T10:46:10.878Z,95032.19
2023-03-29T10:48:41.191Z,95077.44
2023-03-29T10:51:15.917Z,95047.31
2023-03-29T10:53:44.178Z,95025.53
2023-03-29T10:56:29.874Z,95030.19
2023-03-29T10:59:24.359Z,95041.44
2023-03-29T11:02:26.092Z,95026.34
2023-03-29T11:05:06.542Z,95046.19
2023-03-29T11:07:37.085Z,94985.22
2023-03-29T11:10:26.104Z,95011.19
2023-03-29T11:13:00.893Z,95017.13
2023-03-29T11:15:42.252Z,95008.38
2023-03-29T11:18:30.570Z,94986.50
2023-03-29T11:21:10.712Z,95043.53
2023-03-29T11:23:50.849Z,95003.91
2023-03-29T11:26:24.608Z,95047.31
2023-03-29T11:28:58.999Z,94990.47
2023-03-29T11:31:38.977Z,95035.03
2023-03-29T11:34:22.081Z,95006.25
2023-03-29T11:36:58.563Z,95006.66
2023-03-29T11:39:34.092Z,95006.94
2023-03-29T11:42:09.358Z,95003.53
2023-03-29T11:44:38.618Z,95034.25
2023-03-29T11:47:14.032Z,94998.09
2023-03-29T11:49:46.897Z,94983.09
2023-03-29T11:52:19.862Z,95005.78
2023-03-29T11:54:53.552Z,95000.13
2023-03-29T11:57:27.237Z,94975.84
2023-03-29T12:00:00.492Z,94969.06
2023-03-29T12:02:33.706Z,95004.53
2023-03-29T12:05:08.180Z,94990.13
2023-03-29T12:07:43.121Z,94933.94
2023-03-29T12:10:18.542Z,94961.78
2023-03-29T12:12:50.066Z,94998.38
2023-03-29T12:15:21.532Z,94986.06
2023-03-29T12:18:00.254Z,94996.13
2023-03-29T12:20:32.108Z,94988.63
2023-03-29T12:23:01.918Z,94984.66
2023-03-29T12:25:34.160Z,95010.22
2023-03-29T12:28:17.536Z,95004.34
2023-03-29T12:30:57.513Z,95015.41
2023-03-29T12:33:42.656Z,94961.03
2023-03-29T12:36:21.782Z,95009.19
2023-03-29T12:38:53.220Z,94987.16
2023-03-29T12:41:22.899Z,94985.47
2023-03-29T12:43:52.136Z,94983.84
2023-03-29T12:46:24.080Z,94987.81
2023-03-29T12:48:57.154Z,94977.09
2023-03-29T12:51:31.844Z,94964.63
2023-03-29T12:54:09.789Z,94988.03
2023-03-29T12:56:41.543Z,94975.63
2023-03-29T12:59:25.702Z,94963.81
2023-03-29T13:02:01.107Z,94985.56
2023-03-29T13:04:39.504Z,94989.53
2023-03-29T13:07:15.530Z,94992.09
2023-03-29T13:09:53.030Z,94992.59
2023-03-29T13:12:26.758Z,94976.34
2023-03-29T13:14:56.773Z,94985.44
2023-03-29T13:17:35.280Z,94988.94
2023-03-29T13:20:34.929Z,94976.25
2023-03-29T13:23:18.546Z,94975.69
2023-03-29T13:26:02.346Z,94962.06
2023-03-29T13:28:38.413Z,94969.56
2023-03-29T13:31:19.364Z,94956.78
2023-03-29T13:33:58.562Z,94977.47
2023-03-29T13:36:39.724Z,94999.88
2023-03-29T13:39:08.479Z,94965.66
2023-03-29T13:41:49.274Z,94983.75
2023-03-29T13:44:29.523Z,94975.63
2023-03-29T13:47:06.900Z,94969.75
2023-03-29T13:49:36.728Z,95018.00
2023-03-29T13:52:16.058Z,94962.13
2023-03-29T13:54:54.466Z,94983.19
2023-03-29T13:57:32.837Z,94995.03
2023-03-29T14:00:07.235Z,94997.88
2023-03-29T14:02:41.910Z,94978.63
2023-03-29T14:05:14.385Z,94974.13
2023-03-29T14:07:50.060Z,94995.16
2023-03-29T14:10:29.197Z,94951.28
2023-03-29T14:13:04.325Z,94978.47
2023-03-29T14:15:45.820Z,94981.69
2023-03-29T14:18:17.604Z,94983.00
2023-03-29T14:20:50.307Z,94987.47
2023-03-29T14:23:22.522Z,94975.00
2023-03-29T14:25:51.051Z,94976.56
2023-03-29T14:28:25.336Z,94973.22
2023-03-29T14:30:53.732Z,94993.75
2023-03-29T14:33:29.760Z,94984.28
2023-03-29T14:36:00.871Z,94944.50
2023-03-29T14:38:29.888Z,94987.16
2023-03-29T14:41:03.497Z,94955.00
2023-03-29T14:43:33.256Z,95019.06
2023-03-29T14:46:06.360Z,95020.38
2023-03-29T14:48:36.562Z,94971.94
2023-03-29T14:51:10.536Z,95013.50
2023-03-29T14:53:39.583Z,94987.00
2023-03-29T14:56:13.217Z,95004.13
2023-03-29T14:58:47.613Z,94989.84
2023-03-29T15:01:18.498Z,95018.06
2023-03-29T15:03:54.820Z,94993.97
2023-03-29T15:06:25.300Z,94984.06
2023-03-29T15:09:04.493Z,95008.59
2023-03-29T15:11:35.213Z,94995.38
2023-03-29T15:14:08.975Z,94998.13
2023-03-29T15:16:41.415Z,94995.44
2023-03-29T15:19:17.712Z,95002.78
2023-03-29T15:21:48.998Z,94985.59
2023-03-29T15:24:23.373Z,95002.16
2023-03-29T15:27:03.212Z,95008.47
2023-03-29T15:29:41.925Z,94980.88
2023-03-29T15:32:11.696Z,95009.94
2023-03-29T15:34:39.689Z,95035.50
2023-03-29T15:37:08.133Z,95018.38
2023-03-29T15:39:36.655Z,95030.09
2023-03-29T15:42:04.587Z,95036.97
2023-03-29T15:44:35.326Z,95034.69
2023-03-29T15:47:04.956Z,95020.06
2023-03-29T15:49:32.929Z,95031.81
2023-03-29T15:52:00.863Z,95035.88
2023-03-29T15:54:30.948Z,95040.91
2023-03-29T15:57:04.568Z,95036.69
2023-03-29T15:59:33.151Z,95042.41
2023-03-29T16:02:02.041Z,95051.53
2023-03-29T16:04:31.354Z,95039.44
2023-03-29T16:06:59.486Z,95042.66
2023-03-29T16:09:27.486Z,95042.41
2023-03-29T16:11:55.341Z,95028.81
2023-03-29T16:14:27.127Z,95046.41
2023-03-29T16:16:55.868Z,95057.41
2023-03-29T16:19:25.701Z,95035.81
2023-03-29T16:21:55.958Z,95029.41
2023-03-29T16:24:26.467Z,95049.81
2023-03-29T16:26:56.482Z,95047.22
2023-03-29T16:29:24.661Z,95048.72
2023-03-29T16:31:53.419Z,95048.97
2023-03-29T16:34:22.895Z,95043.94
2023-03-29T16:36:53.007Z,95048.97
2023-03-29T16:39:22.444Z,95062.28
2023-03-29T16:41:50.690Z,95054.22
2023-03-29T16:44:23.924Z,95045.13
2023-03-29T16:46:54.000Z,95044.84
2023-03-29T16:49:22.489Z,95056.13
2023-03-29T16:51:50.449Z,95061.53
2023-03-29T16:54:18.963Z,95054.63
2023-03-29T16:56:48.303Z,95062.75
2023-03-29T16:59:16.712Z,95036.00
2023-03-29T17:01:45.040Z,95047.84
2023-03-29T17:04:13.035Z,95063.88
2023-03-29T17:06:42.100Z,95069.97
2023-03-29T17:09:17.751Z,95063.19
2023-03-29T17:11:46.130Z,95069.69
2023-03-29T17:14:15.694Z,95057.34
2023-03-29T17:16:43.832Z,95064.91
2023-03-29T17:19:11.793Z,95067.22
2023-03-29T17:21:39.708Z,95082.16
2023-03-29T17:24:09.773Z,95059.16
2023-03-29T17:26:38.571Z,95073.16
2023-03-29T17:29:06.732Z,95080.91
2023-03-29T17:31:36.642Z,95080.22
2023-03-29T17:34:06.204Z,95073.44
2023-03-29T17:36:34.177Z,95077.19
2023-03-29T17:39:02.945Z,95091.63
2023-03-29T17:41:31.318Z,95091.06
2023-03-29T17:43:59.397Z,95092.28
2023-03-29T17:46:27.355Z,95090.06
2023-03-29T17:48:59.146Z,95091.31
2023-03-29T17:51:28.275Z,95090.22
2023-03-29T17:53:58.706Z,95085.47
2023-03-29T17:56:26.700Z,95094.59
2023-03-29T17:58:54.882Z,95103.09
2023-03-29T18:01:23.012Z,95084.47
2023-03-29T18:03:51.198Z,95101.38
2023-03-29T18:06:21.003Z,95095.38
2023-03-29T18:08:49.138Z,95085.78
2023-03-29T18:11:22.426Z,95080.78
2023-03-29T18:13:51.044Z,95090.44
2023-03-29T18:16:19.366Z,95104.59
2023-03-29T18:18:47.621Z,95082.03
2023-03-29T18:21:16.086Z,95118.16
2023-03-29T18:23:47.690Z,95115.72
2023-03-29T18:26:16.813Z,95109.75
2023-03-29T18:28:46.668Z,95101.25
2023-03-29T18:31:15.364Z,95109.81
2023-03-29T18:33:43.403Z,95113.06
2023-03-29T18:36:13.565Z,95109.69
2023-03-29T18:38:43.421Z,95103.16
2023-03-29T18:41:14.340Z,95100.81
2023-03-29T18:43:44.405Z,95108.31
2023-03-29T18:46:12.553Z,95108.25
2023-03-29T18:48:41.147Z,95107.97
2023-03-29T18:51:10.400Z,95093.88
2023-03-29T18:53:42.059Z,95112.50
2023-03-29T18:56:10.188Z,95110.63
2023-03-29T18:58:39.564Z,95096.94
2023-03-29T19:01:09.685Z,95065.59
2023-03-29T19:03:37.983Z,95104.66
2023-03-29T19:06:07.147Z,95096.09
2023-03-29T19:08:36.736Z,95067.38
2023-03-29T19:11:07.154Z,95096.25
2023-03-29T19:13:35.864Z,95097.31
2023-03-29T19:16:05.892Z,95096.50
2023-03-29T19:18:34.690Z,95075.81
2023-03-29T19:21:02.679Z,95098.69
2023-03-29T19:23:30.594Z,95097.03
2023-03-29T19:26:01.339Z,95109.00
2023-03-29T19:28:30.501Z,95091.59
2023-03-29T19:31:00.723Z,95109.81
2023-03-29T19:33:30.542Z,95092.59
2023-03-29T19:35:58.647Z,95095.00
2023-03-29T19:38:26.624Z,95081.53
2023-03-29T19:40:54.599Z,95099.31
2023-03-29T19:43:22.602Z,95094.03
2023-03-29T19:45:52.442Z,95101.38
2023-03-29T19:48:23.350Z,95090.84
2023-03-29T19:50:53.304Z,95087.94
2023-03-29T19:53:21.530Z,95101.53
2023-03-29T19:55:49.925Z,95094.47
2023-03-29T19:58:17.843Z,95102.19
2023-03-29T20:00:46.708Z,95080.28
2023-03-29T20:03:15.705Z,95102.19
2023-03-29T20:05:44.305Z,95104.91
2023-03-29T20:08:13.761Z,95099.75
2023-03-29T20:10:41.701Z,95088.72
2023-03-29T20:13:09.682Z,95113.56
2023-03-29T20:15:37.613Z,95111.34
2023-03-29T20:18:06.105Z,95117.44
2023-03-29T20:20:35.757Z,95118.00
2023-03-29T20:23:05.508Z,95095.44
2023-03-29T20:25:36.268Z,95108.06
2023-03-29T20:28:04.788Z,95113.63
2023-03-29T20:30:32.818Z,95102.31
2023-03-29T20:33:00.948Z,95094.16
2023-03-29T20:35:28.925Z,95108.63
2023-03-29T20:37:56.885Z,95105.91
2023-03-29T20:40:25.146Z,95093.94
2023-03-29T20:42:55.010Z,95100.44
2023-03-29T20:45:22.975Z,95085.69
2023-03-29T20:47:57.816Z,95099.25
2023-03-29T20:50:29.319Z,95106.69
2023-03-29T20:53:02.299Z,95107.13
2023-03-29T20:55:33.265Z,95108.06
2023-03-29T20:58:03.412Z,95101.16
2023-03-29T21:00:35.430Z,95109.13
2023-03-29T21:03:04.645Z,95111.91
2023-03-29T21:05:34.016Z,95092.44
2023-03-29T21:08:02.505Z,95086.19
2023-03-29T21:10:30.943Z,95094.78
2023-03-29T21:13:00.642Z,95070.41
2023-03-29T21:15:31.975Z,95094.72
2023-03-29T21:17:59.993Z,95087.88
2023-03-29T21:20:28.663Z,95098.38
2023-03-29T21:22:56.586Z,95081.19
2023-03-29T21:25:24.504Z,95086.41
2023-03-29T21:27:52.395Z,95078.69
2023-03-29T21:30:20.282Z,95104.06
2023-03-29T21:32:49.640Z,95084.22
2023-03-29T21:35:17.711Z,95108.13
2023-03-29T21:37:45.620Z,95114.25
2023-03-29T21:40:14.638Z,95106.41
2023-03-29T21:42:42.577Z,95114.38
2023-03-29T21:45:11.971Z,95106.78
2023-03-29T21:47:39.924Z,95100.94
2023-03-29T21:50:10.793Z,95094.00
2023-03-29T21:52:39.071Z,95074.75
2023-03-29T21:55:07.754Z,95104.06
2023-03-29T21:57:35.681Z,95087.09
2023-03-29T22:00:05.534Z,95073.94
2023-03-29T22:02:33.507Z,95086.28
2023-03-29T22:05:01.413Z,95064.16
2023-03-29T22:07:30.706Z,95083.84
2023-03-29T22:10:04.275Z,95078.69
2023-03-29T22:12:34.532Z,95073.34
2023-03-29T22:15:02.955Z,95081.25
2023-03-29T22:17:30.996Z,95090.50
2023-03-29T22:19:59.013Z,95076.78
2023-03-29T22:22:27.091Z,95073.25
2023-03-29T22:24:57.044Z,95055.47
2023-03-29T22:27:25.248Z,95068.53
2023-03-29T22:29:53.243Z,95080.63
2023-03-29T22:32:21.169Z,95061.19
2023-03-29T22:34:49.120Z,95067.44
2023-03-29T22:37:18.003Z,95073.88
2023-03-29T22:39:46.465Z,95067.22
2023-03-29T22:42:16.087Z,95074.00
2023-03-29T22:44:44.150Z,95082.53
2023-03-29T22:47:12.153Z,95069.50
2023-03-29T22:49:40.038Z,95074.00
2023-03-29T22:52:08.074Z,95064.22
2023-03-29T22:54:36.039Z,95060.56
2023-03-29T22:57:04.057Z,95085.94
2023-03-29T22:59:33.411Z,95062.03
2023-03-29T23:02:01.477Z,95077.38
2023-03-29T23:04:29.522Z,95071.28
2023-03-29T23:06:58.426Z,95074.09
2023-03-29T23:09:26.346Z,95076.69
2023-03-29T23:11:54.208Z,95093.78
2023-03-29T23:14:22.752Z,95073.31
2023-03-29T23:16:52.107Z,95080.47
2023-03-29T23:19:20.162Z,95049.72
2023-03-29T23:21:48.068Z,95076.41
2023-03-29T23:24:19.069Z,95066.59
2023-03-29T23:26:49.043Z,95090.19
2023-03-29T23:29:16.917Z,95085.41
2023-03-29T23:31:45.408Z,95067.09
2023-03-29T23:34:14.908Z,95070.31
2023-03-29T23:36:42.812Z,95070.75
2023-03-29T23:39:10.727Z,95082.91
2023-03-29T23:41:40.252Z,95079.84
2023-03-29T23:44:08.565Z,95079.00
2023-03-29T23:46:36.519Z,95068.66
2023-03-29T23:49:04.494Z,95069.22
2023-03-29T23:51:35.060Z,95058.16
2023-03-29T23:54:05.661Z,95069.59
2023-03-29T23:56:33.578Z,95064.00
2023-03-29T23:59:01.507Z,95058.59
